sensor_id;sensor_type;location;lat;lon;timestamp;temperature;humidity
12761;DHT22;6444;49.742;6.114;2023-11-18T00:01:51;8.70;99.90
12761;DHT22;6444;49.742;6.114;2023-11-18T00:04:18;8.90;99.90
12761;DHT22;6444;49.742;6.114;2023-11-18T00:06:45;8.80;99.90
12761;DHT22;6444;49.742;6.114;2023-11-18T00:09:12;9.30;99.90
12761;DHT22;6444;49.742;6.114;2023-11-18T00:11:41;9.60;99.90
12761;DHT22;6444;49.742;6.114;2023-11-18T00:14:11;9.70;99.90
12761;DHT22;6444;49.742;6.114;2023-11-18T00:16:37;9.10;99.90
12761;DHT22;6444;49.742;6.114;2023-11-18T00:19:04;8.80;99.90
12761;DHT22;6444;49.742;6.114;2023-11-18T00:21:33;8.70;99.90
12761;DHT22;6444;49.742;6.114;2023-11-18T00:24:00;7.90;99.90
12761;DHT22;6444;49.742;6.114;2023-11-18T00:26:27;8.10;99.90
12761;DHT22;6444;49.742;6.114;2023-11-18T00:28:53;7.60;99.90
12761;DHT22;6444;49.742;6.114;2023-11-18T00:31:20;7.40;99.90
12761;DHT22;6444;49.742;6.114;2023-11-18T00:33:47;7.30;99.90
12761;DHT22;6444;49.742;6.114;2023-11-18T00:36:13;7.50;99.90
12761;DHT22;6444;49.742;6.114;2023-11-18T00:38:40;7.60;99.90
12761;DHT22;6444;49.742;6.114;2023-11-18T00:41:06;7.40;99.90
12761;DHT22;6444;49.742;6.114;2023-11-18T00:43:33;7.50;99.90
12761;DHT22;6444;49.742;6.114;2023-11-18T00:46:00;8.40;99.90
12761;DHT22;6444;49.742;6.114;2023-11-18T00:48:27;8.30;99.90
12761;DHT22;6444;49.742;6.114;2023-11-18T00:50:54;9.00;99.90
12761;DHT22;6444;49.742;6.114;2023-11-18T00:53:21;9.20;99.90
12761;DHT22;6444;49.742;6.114;2023-11-18T00:55:48;9.10;99.90
12761;DHT22;6444;49.742;6.114;2023-11-18T00:58:14;9.40;99.90
12761;DHT22;6444;49.742;6.114;2023-11-18T01:00:41;9.60;99.90
12761;DHT22;6444;49.742;6.114;2023-11-18T01:03:08;9.00;99.90
12761;DHT22;6444;49.742;6.114;2023-11-18T01:05:34;8.40;99.90
12761;DHT22;6444;49.742;6.114;2023-11-18T01:08:02;7.30;99.90
12761;DHT22;6444;49.742;6.114;2023-11-18T01:10:28;7.30;99.90
12761;DHT22;6444;49.742;6.114;2023-11-18T01:12:55;8.00;99.90
12761;DHT22;6444;49.742;6.114;2023-11-18T01:15:22;8.10;99.90
12761;DHT22;6444;49.742;6.114;2023-11-18T01:17:48;7.90;99.90
12761;DHT22;6444;49.742;6.114;2023-11-18T01:20:15;8.70;99.90
12761;DHT22;6444;49.742;6.114;2023-11-18T01:22:41;8.40;99.90
12761;DHT22;6444;49.742;6.114;2023-11-18T01:25:09;8.30;99.90
12761;DHT22;6444;49.742;6.114;2023-11-18T01:27:35;8.30;99.90
12761;DHT22;6444;49.742;6.114;2023-11-18T01:30:02;8.40;99.90
12761;DHT22;6444;49.742;6.114;2023-11-18T01:32:29;8.30;99.90
12761;DHT22;6444;49.742;6.114;2023-11-18T01:34:55;8.30;99.90
12761;DHT22;6444;49.742;6.114;2023-11-18T01:37:23;8.10;99.90
12761;DHT22;6444;49.742;6.114;2023-11-18T01:39:49;8.10;99.90
12761;DHT22;6444;49.742;6.114;2023-11-18T01:42:16;8.40;99.90
12761;DHT22;6444;49.742;6.114;2023-11-18T01:44:43;8.40;99.90
12761;DHT22;6444;49.742;6.114;2023-11-18T01:47:09;8.10;99.90
12761;DHT22;6444;49.742;6.114;2023-11-18T01:49:37;7.30;99.90
12761;DHT22;6444;49.742;6.114;2023-11-18T01:52:03;7.30;99.90
12761;DHT22;6444;49.742;6.114;2023-11-18T01:54:30;7.90;99.90
12761;DHT22;6444;49.742;6.114;2023-11-18T01:56:57;8.90;99.90
12761;DHT22;6444;49.742;6.114;2023-11-18T01:59:24;8.80;99.90
12761;DHT22;6444;49.742;6.114;2023-11-18T02:01:51;8.20;99.90
12761;DHT22;6444;49.742;6.114;2023-11-18T02:04:17;7.70;99.90
12761;DHT22;6444;49.742;6.114;2023-11-18T02:06:45;6.70;99.90
12761;DHT22;6444;49.742;6.114;2023-11-18T02:09:11;6.70;99.90
12761;DHT22;6444;49.742;6.114;2023-11-18T02:11:43;6.30;99.90
12761;DHT22;6444;49.742;6.114;2023-11-18T02:14:05;6.40;99.90
12761;DHT22;6444;49.742;6.114;2023-11-18T02:16:32;6.50;99.90
12761;DHT22;6444;49.742;6.114;2023-11-18T02:18:59;6.30;99.90
12761;DHT22;6444;49.742;6.114;2023-11-18T02:21:25;6.40;99.90
12761;DHT22;6444;49.742;6.114;2023-11-18T02:23:52;6.30;99.90
12761;DHT22;6444;49.742;6.114;2023-11-18T02:26:22;6.20;99.90
12761;DHT22;6444;49.742;6.114;2023-11-18T02:28:48;6.10;99.90
12761;DHT22;6444;49.742;6.114;2023-11-18T02:31:18;6.20;99.90
12761;DHT22;6444;49.742;6.114;2023-11-18T02:33:49;6.30;99.90
12761;DHT22;6444;49.742;6.114;2023-11-18T02:36:20;6.10;99.90
12761;DHT22;6444;49.742;6.114;2023-11-18T02:38:44;6.10;99.90
12761;DHT22;6444;49.742;6.114;2023-11-18T02:41:09;6.10;99.90
12761;DHT22;6444;49.742;6.114;2023-11-18T02:43:34;6.00;99.90
12761;DHT22;6444;49.742;6.114;2023-11-18T02:46:00;5.90;99.90
12761;DHT22;6444;49.742;6.114;2023-11-18T02:48:27;6.10;99.90
12761;DHT22;6444;49.742;6.114;2023-11-18T02:50:54;6.20;99.90
12761;DHT22;6444;49.742;6.114;2023-11-18T02:53:20;6.20;99.90
12761;DHT22;6444;49.742;6.114;2023-11-18T02:55:47;6.40;99.90
12761;DHT22;6444;49.742;6.114;2023-11-18T02:58:14;7.20;99.90
12761;DHT22;6444;49.742;6.114;2023-11-18T03:00:41;7.10;99.90
12761;DHT22;6444;49.742;6.114;2023-11-18T03:03:08;6.90;99.90
12761;DHT22;6444;49.742;6.114;2023-11-18T03:05:35;7.10;99.90
12761;DHT22;6444;49.742;6.114;2023-11-18T03:08:02;7.10;99.90
12761;DHT22;6444;49.742;6.114;2023-11-18T03:10:28;7.10;99.90
12761;DHT22;6444;49.742;6.114;2023-11-18T03:12:55;7.20;99.90
12761;DHT22;6444;49.742;6.114;2023-11-18T03:15:22;7.70;99.90
12761;DHT22;6444;49.742;6.114;2023-11-18T03:17:48;7.80;99.90
12761;DHT22;6444;49.742;6.114;2023-11-18T03:20:15;7.60;99.90
12761;DHT22;6444;49.742;6.114;2023-11-18T03:22:45;7.60;99.90
12761;DHT22;6444;49.742;6.114;2023-11-18T03:25:08;7.60;99.90
12761;DHT22;6444;49.742;6.114;2023-11-18T03:27:35;7.20;99.90
12761;DHT22;6444;49.742;6.114;2023-11-18T03:30:01;7.10;99.90
12761;DHT22;6444;49.742;6.114;2023-11-18T03:32:28;7.10;99.90
12761;DHT22;6444;49.742;6.114;2023-11-18T03:34:55;7.00;99.90
12761;DHT22;6444;49.742;6.114;2023-11-18T03:37:22;7.00;99.90
12761;DHT22;6444;49.742;6.114;2023-11-18T03:39:49;7.00;99.90
12761;DHT22;6444;49.742;6.114;2023-11-18T03:42:15;6.90;99.90
12761;DHT22;6444;49.742;6.114;2023-11-18T03:44:43;6.80;99.90
12761;DHT22;6444;49.742;6.114;2023-11-18T03:47:09;6.80;99.90
12761;DHT22;6444;49.742;6.114;2023-11-18T03:49:36;6.90;99.90
12761;DHT22;6444;49.742;6.114;2023-11-18T03:52:03;6.90;99.90
12761;DHT22;6444;49.742;6.114;2023-11-18T03:54:30;6.30;99.90
12761;DHT22;6444;49.742;6.114;2023-11-18T03:56:57;6.30;99.90
12761;DHT22;6444;49.742;6.114;2023-11-18T03:59:23;6.30;99.90
12761;DHT22;6444;49.742;6.114;2023-11-18T04:01:50;6.50;99.90
12761;DHT22;6444;49.742;6.114;2023-11-18T04:04:17;6.60;99.90
12761;DHT22;6444;49.742;6.114;2023-11-18T04:06:44;6.80;99.90
12761;DHT22;6444;49.742;6.114;2023-11-18T04:09:10;6.80;99.90
12761;DHT22;6444;49.742;6.114;2023-11-18T04:11:37;7.00;99.90
12761;DHT22;6444;49.742;6.114;2023-11-18T04:14:04;6.50;99.90
12761;DHT22;6444;49.742;6.114;2023-11-18T04:16:31;6.40;99.90
12761;DHT22;6444;49.742;6.114;2023-11-18T04:18:58;6.50;99.90
12761;DHT22;6444;49.742;6.114;2023-11-18T04:21:24;6.60;99.90
12761;DHT22;6444;49.742;6.114;2023-11-18T04:23:51;6.40;99.90
12761;DHT22;6444;49.742;6.114;2023-11-18T04:26:18;6.70;99.90
12761;DHT22;6444;49.742;6.114;2023-11-18T04:28:45;6.60;99.90
12761;DHT22;6444;49.742;6.114;2023-11-18T04:31:12;6.60;99.90
12761;DHT22;6444;49.742;6.114;2023-11-18T04:33:38;6.70;99.90
12761;DHT22;6444;49.742;6.114;2023-11-18T04:36:05;6.80;99.90
12761;DHT22;6444;49.742;6.114;2023-11-18T04:38:32;6.80;99.90
12761;DHT22;6444;49.742;6.114;2023-11-18T04:40:59;6.70;99.90
12761;DHT22;6444;49.742;6.114;2023-11-18T04:43:26;6.70;99.90
12761;DHT22;6444;49.742;6.114;2023-11-18T04:45:52;6.40;99.90
12761;DHT22;6444;49.742;6.114;2023-11-18T04:48:19;6.20;99.90
12761;DHT22;6444;49.742;6.114;2023-11-18T04:50:45;6.10;99.90
12761;DHT22;6444;49.742;6.114;2023-11-18T04:53:13;6.80;99.90
12761;DHT22;6444;49.742;6.114;2023-11-18T04:55:39;6.70;99.90
12761;DHT22;6444;49.742;6.114;2023-11-18T04:58:06;6.90;99.90
12761;DHT22;6444;49.742;6.114;2023-11-18T05:00:33;6.70;99.90
12761;DHT22;6444;49.742;6.114;2023-11-18T05:03:00;6.60;99.90
12761;DHT22;6444;49.742;6.114;2023-11-18T05:05:27;6.40;99.90
12761;DHT22;6444;49.742;6.114;2023-11-18T05:07:53;6.40;99.90
12761;DHT22;6444;49.742;6.114;2023-11-18T05:10:20;6.40;99.90
12761;DHT22;6444;49.742;6.114;2023-11-18T05:12:47;7.10;99.90
12761;DHT22;6444;49.742;6.114;2023-11-18T05:15:14;7.10;99.90
12761;DHT22;6444;49.742;6.114;2023-11-18T05:17:41;7.40;99.90
12761;DHT22;6444;49.742;6.114;2023-11-18T05:20:08;7.00;99.90
12761;DHT22;6444;49.742;6.114;2023-11-18T05:22:35;7.00;99.90
12761;DHT22;6444;49.742;6.114;2023-11-18T05:25:01;6.80;99.90
12761;DHT22;6444;49.742;6.114;2023-11-18T05:27:28;6.60;99.90
12761;DHT22;6444;49.742;6.114;2023-11-18T05:29:54;6.90;99.90
12761;DHT22;6444;49.742;6.114;2023-11-18T05:32:21;7.20;99.90
12761;DHT22;6444;49.742;6.114;2023-11-18T05:34:49;6.80;99.90
12761;DHT22;6444;49.742;6.114;2023-11-18T05:37:14;6.70;99.90
12761;DHT22;6444;49.742;6.114;2023-11-18T05:39:41;6.50;99.90
12761;DHT22;6444;49.742;6.114;2023-11-18T05:42:08;6.20;99.90
12761;DHT22;6444;49.742;6.114;2023-11-18T05:44:34;6.00;99.90
12761;DHT22;6444;49.742;6.114;2023-11-18T05:47:01;5.90;99.90
12761;DHT22;6444;49.742;6.114;2023-11-18T05:49:27;6.00;99.90
12761;DHT22;6444;49.742;6.114;2023-11-18T05:51:54;6.30;99.90
12761;DHT22;6444;49.742;6.114;2023-11-18T05:54:21;6.00;99.90
12761;DHT22;6444;49.742;6.114;2023-11-18T05:56:47;5.80;99.90
12761;DHT22;6444;49.742;6.114;2023-11-18T05:59:14;5.80;99.90
12761;DHT22;6444;49.742;6.114;2023-11-18T06:01:41;6.20;99.90
12761;DHT22;6444;49.742;6.114;2023-11-18T06:04:07;6.20;99.90
12761;DHT22;6444;49.742;6.114;2023-11-18T06:06:37;6.10;99.90
12761;DHT22;6444;49.742;6.114;2023-11-18T06:09:03;6.30;99.90
12761;DHT22;6444;49.742;6.114;2023-11-18T06:11:32;6.10;99.90
12761;DHT22;6444;49.742;6.114;2023-11-18T06:13:59;6.10;99.90
12761;DHT22;6444;49.742;6.114;2023-11-18T06:16:26;6.10;99.90
12761;DHT22;6444;49.742;6.114;2023-11-18T06:18:56;6.30;99.90
12761;DHT22;6444;49.742;6.114;2023-11-18T06:21:24;6.70;99.90
12761;DHT22;6444;49.742;6.114;2023-11-18T06:23:52;6.70;99.90
12761;DHT22;6444;49.742;6.114;2023-11-18T06:26:19;6.70;99.90
12761;DHT22;6444;49.742;6.114;2023-11-18T06:28:46;6.60;99.90
12761;DHT22;6444;49.742;6.114;2023-11-18T06:31:13;6.80;99.90
12761;DHT22;6444;49.742;6.114;2023-11-18T06:33:40;6.70;99.90
12761;DHT22;6444;49.742;6.114;2023-11-18T06:36:06;6.60;99.90
12761;DHT22;6444;49.742;6.114;2023-11-18T06:38:33;6.40;99.90
12761;DHT22;6444;49.742;6.114;2023-11-18T06:41:00;6.40;99.90
12761;DHT22;6444;49.742;6.114;2023-11-18T06:43:26;6.30;99.90
12761;DHT22;6444;49.742;6.114;2023-11-18T06:45:54;6.10;99.90
12761;DHT22;6444;49.742;6.114;2023-11-18T06:48:20;6.10;99.90
12761;DHT22;6444;49.742;6.114;2023-11-18T06:50:47;6.10;99.90
12761;DHT22;6444;49.742;6.114;2023-11-18T06:53:14;6.20;99.90
12761;DHT22;6444;49.742;6.114;2023-11-18T06:55:41;6.10;99.90
12761;DHT22;6444;49.742;6.114;2023-11-18T06:58:08;6.10;99.90
12761;DHT22;6444;49.742;6.114;2023-11-18T07:00:35;6.10;99.90
12761;DHT22;6444;49.742;6.114;2023-11-18T07:03:01;6.10;99.90
12761;DHT22;6444;49.742;6.114;2023-11-18T07:05:28;6.50;99.90
12761;DHT22;6444;49.742;6.114;2023-11-18T07:07:55;6.40;99.90
12761;DHT22;6444;49.742;6.114;2023-11-18T07:10:21;6.50;99.90
12761;DHT22;6444;49.742;6.114;2023-11-18T07:12:48;6.60;99.90
12761;DHT22;6444;49.742;6.114;2023-11-18T07:15:15;6.60;99.90
12761;DHT22;6444;49.742;6.114;2023-11-18T07:17:42;6.40;99.90
12761;DHT22;6444;49.742;6.114;2023-11-18T07:20:08;6.60;99.90
12761;DHT22;6444;49.742;6.114;2023-11-18T07:22:35;6.70;99.90
12761;DHT22;6444;49.742;6.114;2023-11-18T07:25:01;7.00;99.90
12761;DHT22;6444;49.742;6.114;2023-11-18T07:27:28;6.70;99.90
12761;DHT22;6444;49.742;6.114;2023-11-18T07:29:55;6.60;99.90
12761;DHT22;6444;49.742;6.114;2023-11-18T07:32:21;6.30;99.90
12761;DHT22;6444;49.742;6.114;2023-11-18T07:34:48;6.30;99.90
12761;DHT22;6444;49.742;6.114;2023-11-18T07:37:15;6.50;99.90
12761;DHT22;6444;49.742;6.114;2023-11-18T07:39:42;6.40;99.90
12761;DHT22;6444;49.742;6.114;2023-11-18T07:42:11;6.80;99.90
12761;DHT22;6444;49.742;6.114;2023-11-18T07:44:38;7.20;99.90
12761;DHT22;6444;49.742;6.114;2023-11-18T07:47:07;7.20;99.90
12761;DHT22;6444;49.742;6.114;2023-11-18T07:49:34;7.40;99.90
12761;DHT22;6444;49.742;6.114;2023-11-18T07:52:03;7.30;99.90
12761;DHT22;6444;49.742;6.114;2023-11-18T07:56:59;6.70;99.90
12761;DHT22;6444;49.742;6.114;2023-11-18T07:59:26;6.80;99.90
12761;DHT22;6444;49.742;6.114;2023-11-18T08:01:53;6.70;99.90
12761;DHT22;6444;49.742;6.114;2023-11-18T08:04:20;6.60;99.90
12761;DHT22;6444;49.742;6.114;2023-11-18T08:06:47;6.60;99.90
12761;DHT22;6444;49.742;6.114;2023-11-18T08:09:13;6.80;99.90
12761;DHT22;6444;49.742;6.114;2023-11-18T08:11:41;7.00;99.90
12761;DHT22;6444;49.742;6.114;2023-11-18T08:14:07;7.00;99.90
12761;DHT22;6444;49.742;6.114;2023-11-18T08:16:37;7.50;99.90
12761;DHT22;6444;49.742;6.114;2023-11-18T08:19:03;7.40;99.90
12761;DHT22;6444;49.742;6.114;2023-11-18T08:21:30;7.00;99.90
12761;DHT22;6444;49.742;6.114;2023-11-18T08:23:57;7.00;99.90
12761;DHT22;6444;49.742;6.114;2023-11-18T08:26:23;7.10;99.90
12761;DHT22;6444;49.742;6.114;2023-11-18T08:28:50;7.50;99.90
12761;DHT22;6444;49.742;6.114;2023-11-18T08:31:17;7.50;99.90
12761;DHT22;6444;49.742;6.114;2023-11-18T08:33:43;7.30;99.90
12761;DHT22;6444;49.742;6.114;2023-11-18T08:36:10;7.30;99.90
12761;DHT22;6444;49.742;6.114;2023-11-18T08:38:36;7.20;99.90
12761;DHT22;6444;49.742;6.114;2023-11-18T08:41:03;7.40;99.90
12761;DHT22;6444;49.742;6.114;2023-11-18T08:43:30;7.60;99.90
12761;DHT22;6444;49.742;6.114;2023-11-18T08:45:56;7.50;99.90
12761;DHT22;6444;49.742;6.114;2023-11-18T08:48:23;7.30;99.90
12761;DHT22;6444;49.742;6.114;2023-11-18T08:50:50;7.10;99.90
12761;DHT22;6444;49.742;6.114;2023-11-18T08:53:17;7.30;99.90
12761;DHT22;6444;49.742;6.114;2023-11-18T08:55:44;7.30;99.90
12761;DHT22;6444;49.742;6.114;2023-11-18T08:58:22;7.40;99.90
12761;DHT22;6444;49.742;6.114;2023-11-18T09:00:53;7.30;99.90
12761;DHT22;6444;49.742;6.114;2023-11-18T09:03:19;7.10;99.90
12761;DHT22;6444;49.742;6.114;2023-11-18T09:05:52;7.10;99.90
12761;DHT22;6444;49.742;6.114;2023-11-18T09:08:27;7.00;99.90
12761;DHT22;6444;49.742;6.114;2023-11-18T09:10:53;7.00;99.90
12761;DHT22;6444;49.742;6.114;2023-11-18T09:13:23;7.00;99.90
12761;DHT22;6444;49.742;6.114;2023-11-18T09:15:49;7.00;99.90
12761;DHT22;6444;49.742;6.114;2023-11-18T09:18:16;7.00;99.90
12761;DHT22;6444;49.742;6.114;2023-11-18T09:20:42;7.00;99.90
12761;DHT22;6444;49.742;6.114;2023-11-18T09:23:09;7.10;99.90
12761;DHT22;6444;49.742;6.114;2023-11-18T09:25:36;7.30;99.90
12761;DHT22;6444;49.742;6.114;2023-11-18T09:28:02;7.30;99.90
12761;DHT22;6444;49.742;6.114;2023-11-18T09:30:29;7.10;99.90
12761;DHT22;6444;49.742;6.114;2023-11-18T09:32:56;6.90;99.90
12761;DHT22;6444;49.742;6.114;2023-11-18T09:35:23;6.90;99.90
12761;DHT22;6444;49.742;6.114;2023-11-18T09:37:50;7.10;99.90
12761;DHT22;6444;49.742;6.114;2023-11-18T09:40:16;7.00;99.90
12761;DHT22;6444;49.742;6.114;2023-11-18T09:42:43;7.10;99.90
12761;DHT22;6444;49.742;6.114;2023-11-18T09:45:10;7.10;99.90
12761;DHT22;6444;49.742;6.114;2023-11-18T09:47:39;7.20;99.90
12761;DHT22;6444;49.742;6.114;2023-11-18T09:50:07;7.60;99.90
12761;DHT22;6444;49.742;6.114;2023-11-18T09:52:32;7.70;99.90
12761;DHT22;6444;49.742;6.114;2023-11-18T09:55:03;7.20;99.90
12761;DHT22;6444;49.742;6.114;2023-11-18T09:57:33;7.20;99.90
12761;DHT22;6444;49.742;6.114;2023-11-18T10:00:07;7.20;99.90
12761;DHT22;6444;49.742;6.114;2023-11-18T10:02:40;7.00;99.90
12761;DHT22;6444;49.742;6.114;2023-11-18T10:05:09;7.00;99.90
12761;DHT22;6444;49.742;6.114;2023-11-18T10:07:37;7.00;99.90
12761;DHT22;6444;49.742;6.114;2023-11-18T10:10:03;7.00;99.90
12761;DHT22;6444;49.742;6.114;2023-11-18T10:12:30;7.10;99.90
12761;DHT22;6444;49.742;6.114;2023-11-18T10:14:57;7.80;99.90
12761;DHT22;6444;49.742;6.114;2023-11-18T10:17:24;7.80;99.90
12761;DHT22;6444;49.742;6.114;2023-11-18T10:19:57;8.40;99.90
12761;DHT22;6444;49.742;6.114;2023-11-18T10:22:25;7.50;99.90
12761;DHT22;6444;49.742;6.114;2023-11-18T10:24:51;7.40;99.90
12761;DHT22;6444;49.742;6.114;2023-11-18T10:27:17;7.50;99.90
12761;DHT22;6444;49.742;6.114;2023-11-18T10:29:44;7.60;99.90
12761;DHT22;6444;49.742;6.114;2023-11-18T10:32:11;7.20;99.90
12761;DHT22;6444;49.742;6.114;2023-11-18T10:34:37;7.50;99.90
12761;DHT22;6444;49.742;6.114;2023-11-18T10:37:04;7.70;99.90
12761;DHT22;6444;49.742;6.114;2023-11-18T10:39:31;7.70;99.90
12761;DHT22;6444;49.742;6.114;2023-11-18T10:42:00;7.90;99.90
12761;DHT22;6444;49.742;6.114;2023-11-18T10:44:27;8.00;99.90
12761;DHT22;6444;49.742;6.114;2023-11-18T10:46:54;8.00;99.90
12761;DHT22;6444;49.742;6.114;2023-11-18T10:49:21;7.90;99.90
12761;DHT22;6444;49.742;6.114;2023-11-18T10:51:47;7.80;99.90
12761;DHT22;6444;49.742;6.114;2023-11-18T10:54:15;8.00;99.90
12761;DHT22;6444;49.742;6.114;2023-11-18T10:56:50;8.00;99.90
12761;DHT22;6444;49.742;6.114;2023-11-18T10:59:17;8.00;99.90
12761;DHT22;6444;49.742;6.114;2023-11-18T11:01:44;7.80;99.90
12761;DHT22;6444;49.742;6.114;2023-11-18T11:04:12;7.90;99.90
12761;DHT22;6444;49.742;6.114;2023-11-18T11:06:45;7.80;99.90
12761;DHT22;6444;49.742;6.114;2023-11-18T11:09:09;7.80;99.90
12761;DHT22;6444;49.742;6.114;2023-11-18T11:11:54;7.70;99.90
12761;DHT22;6444;49.742;6.114;2023-11-18T11:14:22;7.70;99.90
12761;DHT22;6444;49.742;6.114;2023-11-18T11:16:56;7.70;99.90
12761;DHT22;6444;49.742;6.114;2023-11-18T11:19:26;7.80;99.90
12761;DHT22;6444;49.742;6.114;2023-11-18T11:22:15;7.70;99.90
12761;DHT22;6444;49.742;6.114;2023-11-18T11:25:14;7.40;99.90
12761;DHT22;6444;49.742;6.114;2023-11-18T11:29:45;7.40;99.90
12761;DHT22;6444;49.742;6.114;2023-11-18T11:34:34;7.40;99.90
12761;DHT22;6444;49.742;6.114;2023-11-18T11:37:01;7.80;99.90
12761;DHT22;6444;49.742;6.114;2023-11-18T11:39:28;7.80;99.90
12761;DHT22;6444;49.742;6.114;2023-11-18T11:41:55;7.70;99.90
12761;DHT22;6444;49.742;6.114;2023-11-18T11:44:21;7.60;99.90
12761;DHT22;6444;49.742;6.114;2023-11-18T11:46:48;7.50;99.90
12761;DHT22;6444;49.742;6.114;2023-11-18T11:49:17;7.60;99.90
12761;DHT22;6444;49.742;6.114;2023-11-18T11:52:07;7.40;99.90
12761;DHT22;6444;49.742;6.114;2023-11-18T11:54:34;7.50;99.90
12761;DHT22;6444;49.742;6.114;2023-11-18T11:56:58;7.60;99.90
12761;DHT22;6444;49.742;6.114;2023-11-18T12:02:15;7.70;99.90
12761;DHT22;6444;49.742;6.114;2023-11-18T12:04:44;7.70;99.90
12761;DHT22;6444;49.742;6.114;2023-11-18T12:07:10;8.10;99.90
12761;DHT22;6444;49.742;6.114;2023-11-18T12:09:37;8.50;99.90
12761;DHT22;6444;49.742;6.114;2023-11-18T12:12:04;8.10;99.90
12761;DHT22;6444;49.742;6.114;2023-11-18T12:14:30;7.70;99.90
12761;DHT22;6444;49.742;6.114;2023-11-18T12:17:00;7.80;99.90
12761;DHT22;6444;49.742;6.114;2023-11-18T12:19:39;8.20;99.90
12761;DHT22;6444;49.742;6.114;2023-11-18T12:22:11;8.20;99.90
12761;DHT22;6444;49.742;6.114;2023-11-18T12:24:38;7.80;99.90
12761;DHT22;6444;49.742;6.114;2023-11-18T12:27:05;7.70;99.90
12761;DHT22;6444;49.742;6.114;2023-11-18T12:29:34;7.60;99.90
12761;DHT22;6444;49.742;6.114;2023-11-18T12:32:02;7.30;99.90
12761;DHT22;6444;49.742;6.114;2023-11-18T12:34:53;7.30;99.90
12761;DHT22;6444;49.742;6.114;2023-11-18T12:37:50;7.30;99.90
12761;DHT22;6444;49.742;6.114;2023-11-18T12:42:59;7.50;99.90
12761;DHT22;6444;49.742;6.114;2023-11-18T12:45:51;7.60;99.90
12761;DHT22;6444;49.742;6.114;2023-11-18T12:48:14;7.60;99.90
12761;DHT22;6444;49.742;6.114;2023-11-18T12:50:42;7.60;99.90
12761;DHT22;6444;49.742;6.114;2023-11-18T12:53:06;7.70;99.90
12761;DHT22;6444;49.742;6.114;2023-11-18T12:55:33;7.70;99.90
12761;DHT22;6444;49.742;6.114;2023-11-18T12:58:00;7.80;99.90
12761;DHT22;6444;49.742;6.114;2023-11-18T13:00:27;7.80;99.90
12761;DHT22;6444;49.742;6.114;2023-11-18T13:02:53;7.90;99.90
12761;DHT22;6444;49.742;6.114;2023-11-18T13:05:20;7.90;99.90
12761;DHT22;6444;49.742;6.114;2023-11-18T13:07:46;8.00;99.90
12761;DHT22;6444;49.742;6.114;2023-11-18T13:10:17;7.90;99.90
12761;DHT22;6444;49.742;6.114;2023-11-18T13:12:44;7.80;99.90
12761;DHT22;6444;49.742;6.114;2023-11-18T13:15:10;7.90;99.90
12761;DHT22;6444;49.742;6.114;2023-11-18T13:17:37;8.00;99.90
12761;DHT22;6444;49.742;6.114;2023-11-18T13:20:13;7.90;99.90
12761;DHT22;6444;49.742;6.114;2023-11-18T13:22:41;7.80;99.90
12761;DHT22;6444;49.742;6.114;2023-11-18T13:25:07;8.00;99.90
12761;DHT22;6444;49.742;6.114;2023-11-18T13:27:34;7.90;99.90
12761;DHT22;6444;49.742;6.114;2023-11-18T13:30:00;7.80;99.90
12761;DHT22;6444;49.742;6.114;2023-11-18T13:32:27;7.90;99.90
12761;DHT22;6444;49.742;6.114;2023-11-18T13:34:54;7.80;99.90
12761;DHT22;6444;49.742;6.114;2023-11-18T13:37:21;7.80;99.90
12761;DHT22;6444;49.742;6.114;2023-11-18T13:39:54;7.70;99.90
12761;DHT22;6444;49.742;6.114;2023-11-18T13:42:21;7.80;99.90
12761;DHT22;6444;49.742;6.114;2023-11-18T13:44:47;7.70;99.90
12761;DHT22;6444;49.742;6.114;2023-11-18T13:47:16;7.60;99.90
12761;DHT22;6444;49.742;6.114;2023-11-18T13:49:40;7.90;99.90
12761;DHT22;6444;49.742;6.114;2023-11-18T13:52:07;7.90;99.90
12761;DHT22;6444;49.742;6.114;2023-11-18T13:54:39;7.70;99.90
12761;DHT22;6444;49.742;6.114;2023-11-18T13:57:06;7.80;99.90
12761;DHT22;6444;49.742;6.114;2023-11-18T13:59:33;7.80;99.90
12761;DHT22;6444;49.742;6.114;2023-11-18T14:01:59;7.80;99.90
12761;DHT22;6444;49.742;6.114;2023-11-18T14:04:30;7.60;99.90
12761;DHT22;6444;49.742;6.114;2023-11-18T14:07:03;7.50;99.90
12761;DHT22;6444;49.742;6.114;2023-11-18T14:09:32;7.60;99.90
12761;DHT22;6444;49.742;6.114;2023-11-18T14:11:58;7.70;99.90
12761;DHT22;6444;49.742;6.114;2023-11-18T14:14:25;7.70;99.90
12761;DHT22;6444;49.742;6.114;2023-11-18T14:16:51;7.60;99.90
12761;DHT22;6444;49.742;6.114;2023-11-18T14:19:20;7.80;99.90
12761;DHT22;6444;49.742;6.114;2023-11-18T14:21:47;8.00;99.90
12761;DHT22;6444;49.742;6.114;2023-11-18T14:24:14;8.00;99.90
12761;DHT22;6444;49.742;6.114;2023-11-18T14:26:40;8.10;99.90
12761;DHT22;6444;49.742;6.114;2023-11-18T14:29:08;8.20;99.90
12761;DHT22;6444;49.742;6.114;2023-11-18T14:31:34;8.10;99.90
12761;DHT22;6444;49.742;6.114;2023-11-18T14:34:01;8.00;99.90
12761;DHT22;6444;49.742;6.114;2023-11-18T14:36:28;8.10;99.90
12761;DHT22;6444;49.742;6.114;2023-11-18T14:38:54;8.00;99.90
12761;DHT22;6444;49.742;6.114;2023-11-18T14:41:21;7.80;99.90
12761;DHT22;6444;49.742;6.114;2023-11-18T14:43:47;7.90;99.90
12761;DHT22;6444;49.742;6.114;2023-11-18T14:46:14;8.00;99.90
12761;DHT22;6444;49.742;6.114;2023-11-18T14:48:41;8.10;99.90
12761;DHT22;6444;49.742;6.114;2023-11-18T14:51:07;8.00;99.90
12761;DHT22;6444;49.742;6.114;2023-11-18T14:53:34;8.10;99.90
12761;DHT22;6444;49.742;6.114;2023-11-18T14:56:01;8.10;99.90
12761;DHT22;6444;49.742;6.114;2023-11-18T14:58:27;8.10;99.90
12761;DHT22;6444;49.742;6.114;2023-11-18T15:00:54;7.90;99.90
12761;DHT22;6444;49.742;6.114;2023-11-18T15:03:20;7.80;99.90
12761;DHT22;6444;49.742;6.114;2023-11-18T15:05:47;7.90;99.90
12761;DHT22;6444;49.742;6.114;2023-11-18T15:08:14;7.80;99.90
12761;DHT22;6444;49.742;6.114;2023-11-18T15:10:40;7.70;99.90
12761;DHT22;6444;49.742;6.114;2023-11-18T15:13:07;7.90;99.90
12761;DHT22;6444;49.742;6.114;2023-11-18T15:15:34;8.00;99.90
12761;DHT22;6444;49.742;6.114;2023-11-18T15:18:01;8.10;99.90
12761;DHT22;6444;49.742;6.114;2023-11-18T15:20:27;8.30;99.90
12761;DHT22;6444;49.742;6.114;2023-11-18T15:22:54;8.70;99.90
12761;DHT22;6444;49.742;6.114;2023-11-18T15:25:21;8.70;99.90
12761;DHT22;6444;49.742;6.114;2023-11-18T15:27:48;8.50;99.90
12761;DHT22;6444;49.742;6.114;2023-11-18T15:30:16;8.40;99.90
12761;DHT22;6444;49.742;6.114;2023-11-18T15:32:43;8.30;99.90
12761;DHT22;6444;49.742;6.114;2023-11-18T15:35:09;8.10;99.90
12761;DHT22;6444;49.742;6.114;2023-11-18T15:37:41;8.10;99.90
12761;DHT22;6444;49.742;6.114;2023-11-18T15:40:08;8.30;99.90
12761;DHT22;6444;49.742;6.114;2023-11-18T15:42:38;8.70;99.90
12761;DHT22;6444;49.742;6.114;2023-11-18T15:45:07;8.50;99.90
12761;DHT22;6444;49.742;6.114;2023-11-18T15:47:31;8.50;99.90
12761;DHT22;6444;49.742;6.114;2023-11-18T15:49:58;8.50;99.90
12761;DHT22;6444;49.742;6.114;2023-11-18T15:52:24;8.40;99.90
12761;DHT22;6444;49.742;6.114;2023-11-18T15:54:51;8.40;99.90
12761;DHT22;6444;49.742;6.114;2023-11-18T15:57:18;8.30;99.90
12761;DHT22;6444;49.742;6.114;2023-11-18T15:59:44;8.30;99.90
12761;DHT22;6444;49.742;6.114;2023-11-18T16:02:11;8.20;99.90
12761;DHT22;6444;49.742;6.114;2023-11-18T16:04:38;8.30;99.90
12761;DHT22;6444;49.742;6.114;2023-11-18T16:07:04;8.20;99.90
12761;DHT22;6444;49.742;6.114;2023-11-18T16:09:31;8.40;99.90
12761;DHT22;6444;49.742;6.114;2023-11-18T16:11:57;8.40;99.90
12761;DHT22;6444;49.742;6.114;2023-11-18T16:14:24;8.60;99.90
12761;DHT22;6444;49.742;6.114;2023-11-18T16:16:51;8.60;99.90